Airfield :
LOGIN :

Register | Disclaimer

   EN    FR    IT 

 










Legend :    VFR   Marginal VFR   IFR   Intensive IFR   Very Intensive IFR
Visi :
Ceiling :
>= 8 km
>= 3000ft
5 to 8 km
1000 to 3000 ft
1500m to 5 km
500 to 1000 ft
800 to 1500m
200 to 500 ft
< 800m
< 200 ft
Symbols :   Thunderstorms  Fog  Heavy snow  Heavy precipitations  Wind > 20 kt
SIGMETs :     Misc.  Thunderstorms  Icing  Turbulence  Mountain Waves  Volcanic Ashes







- Airport Elevation : 141 ft
- IATA code : SKS


EKSP - Srydstrup Vojens

CURRENT METAR :
  • 251850Z 20006KT CAVOK 09/07 Q1034

EXPIRED METARs :
  • 251832Z 21007KT 170V240 CAVOK 10/07 Q1034 RMK FEW050
  • 251820Z 21006KT CAVOK 10/08 Q1034
  • 251750Z 20005KT CAVOK 09/08 Q1034
  • 251720Z 20006KT CAVOK 09/08 Q1034
  • 251650Z 21006KT 9999 FEW033 SCT057 11/08 Q1034
  • 251620Z 23006KT 9999 FEW033 BKN057 11/08 Q1035

TAF TAF EKSP
Valid from the 25 at 18:00 until the 26 at 18:00 UTC


251708Z 2518/2618 24012KT 9999 BKN030
BECMG 2600/2603 24015G30KT
TEMPO 2606/2612 24022G36KT
TEMPO 2612/2618 24020G32KT 6000 -RADZ BKN012
No reported NOTAMs for that airfield.



MET'MAP, your aeronautical weather chart ! - Copyright ORBIFLY December 2007 - Disclaimer

ORBIFLY MET'MAP TEAM :

Programming & Development : Alexandra Zaïnal
Concept & Development : Baudouin d'Aumeries
Co-Development & Prog : Marc-Olivier Méhu
Technical & hardware support : Manuel Goepfert

Contact : metmap@orbifly.com




SOURCES & CREDITS :

   NOAA